Strona główna
METAR-TAF:

METAR-TAF

Lotnisko :

Port lotniczy Tuluza-Blagnac

Tuluza, Francja

Szerokość geograficzna: 43-38N, Długość geograficzna: 001-22E, wysokość: 152 m

Aktualna obserwacja pogody

Raport powstał 29 minut temu, godzina 19:30 UTC
Wiatr 9 kt od zachodnio-północny zachód
Temperatura 24°C
Wilgotność 47%
Ciśnienie 1017 hPa
Widzialność 10 km lub więcej
Brak chmur poniżej 1500 m i brak chmur cumulonimbus

METAR: LFBO 181930Z AUTO 29009KT CAVOK 24/12 Q1017 NOSIG

czas: 21:59 (19:59 UTC)

Prognoza

Raport powstał 2 godziny i 59 minut temu, godzina 17:00 UTC
Prognoza ważna od 18 godzina 18 UTC do 19 godzina 24 UTC
Wiatr 8 kt od zachód
Widzialność 10 km lub więcej
Brak chmur poniżej 1500 m i brak chmur cumulonimbus
Stopniowe zmiany
od 19 godzina 07 UTC do 19 godzina 09 UTC
Wiatr 6 kt od północny wschód

TAF: LFBO 181700Z 1818/1924 28008KT CAVOK BECMG 1907/1909 05006KT

Obserwacja i prognoza pogody dla ponad 4000 lotnisk (raport METAR i TAF).

Dostępne stacje oznaczono żółtymi i czerwonymi punktami na mapie.

Najedź kursorem aby zobaczyć nazwę stacji.

Kliknij aby zobaczyć obserwacje i prognozy pogody.

Aby zmienić mapę: kliknij na zielony przycisk z czarnym krzyżykiem, aby powiększyć; na zielony przycisk z myślnikiem, aby pomniejszyć; na zielone strzałki, aby przejść do map sąsiednich.


METAR-TAF: